sensor_id;sensor_type;location;lat;lon;timestamp;P1;durP1;ratioP1;P2;durP2;ratioP2
51943;SDS011;37969;53.132;6.370;2022-09-16T00:01:24;9.00;;;1.90;;
51943;SDS011;37969;53.132;6.370;2022-09-16T00:03:52;8.85;;;1.98;;
51943;SDS011;37969;53.132;6.370;2022-09-16T00:06:21;10.05;;;1.85;;
51943;SDS011;37969;53.132;6.370;2022-09-16T00:08:48;6.43;;;1.40;;
51943;SDS011;37969;53.132;6.370;2022-09-16T00:11:14;5.78;;;1.45;;
51943;SDS011;37969;53.132;6.370;2022-09-16T00:13:41;12.48;;;1.65;;
51943;SDS011;37969;53.132;6.370;2022-09-16T00:16:08;6.72;;;1.20;;
51943;SDS011;37969;53.132;6.370;2022-09-16T00:18:34;6.22;;;1.15;;
51943;SDS011;37969;53.132;6.370;2022-09-16T00:21:01;5.45;;;0.90;;
51943;SDS011;37969;53.132;6.370;2022-09-16T00:23:27;9.68;;;1.30;;
51943;SDS011;37969;53.132;6.370;2022-09-16T00:25:53;3.38;;;0.98;;
51943;SDS011;37969;53.132;6.370;2022-09-16T00:28:21;5.72;;;1.15;;
51943;SDS011;37969;53.132;6.370;2022-09-16T00:30:47;5.70;;;1.00;;
51943;SDS011;37969;53.132;6.370;2022-09-16T00:33:14;8.40;;;1.60;;
51943;SDS011;37969;53.132;6.370;2022-09-16T00:35:40;4.50;;;1.35;;
51943;SDS011;37969;53.132;6.370;2022-09-16T00:38:06;8.27;;;1.30;;
51943;SDS011;37969;53.132;6.370;2022-09-16T00:40:33;8.88;;;1.20;;
51943;SDS011;37969;53.132;6.370;2022-09-16T00:42:59;8.18;;;1.40;;
51943;SDS011;37969;53.132;6.370;2022-09-16T00:45:26;7.82;;;1.63;;
51943;SDS011;37969;53.132;6.370;2022-09-16T00:47:57;9.00;;;1.73;;
51943;SDS011;37969;53.132;6.370;2022-09-16T00:50:34;8.75;;;1.80;;
51943;SDS011;37969;53.132;6.370;2022-09-16T00:53:02;9.68;;;1.63;;
51943;SDS011;37969;53.132;6.370;2022-09-16T00:55:30;14.88;;;1.77;;
51943;SDS011;37969;53.132;6.370;2022-09-16T00:58:00;12.20;;;2.30;;
51943;SDS011;37969;53.132;6.370;2022-09-16T01:00:28;6.50;;;1.65;;
51943;SDS011;37969;53.132;6.370;2022-09-16T01:02:54;5.03;;;1.45;;
51943;SDS011;37969;53.132;6.370;2022-09-16T01:05:21;9.68;;;1.90;;
51943;SDS011;37969;53.132;6.370;2022-09-16T01:07:51;5.57;;;1.55;;
51943;SDS011;37969;53.132;6.370;2022-09-16T01:10:19;5.68;;;1.45;;
51943;SDS011;37969;53.132;6.370;2022-09-16T01:12:48;11.00;;;2.13;;
51943;SDS011;37969;53.132;6.370;2022-09-16T01:15:15;7.63;;;1.98;;
51943;SDS011;37969;53.132;6.370;2022-09-16T01:17:52;5.90;;;1.58;;
51943;SDS011;37969;53.132;6.370;2022-09-16T01:22:57;8.93;;;1.85;;
51943;SDS011;37969;53.132;6.370;2022-09-16T01:25:47;10.38;;;1.60;;
51943;SDS011;37969;53.132;6.370;2022-09-16T01:28:27;4.03;;;1.60;;
51943;SDS011;37969;53.132;6.370;2022-09-16T01:33:30;13.13;;;2.15;;
51943;SDS011;37969;53.132;6.370;2022-09-16T01:36:02;4.18;;;1.30;;
51943;SDS011;37969;53.132;6.370;2022-09-16T01:43:31;3.85;;;1.50;;
51943;SDS011;37969;53.132;6.370;2022-09-16T01:46:09;7.35;;;1.67;;
51943;SDS011;37969;53.132;6.370;2022-09-16T01:48:42;8.15;;;1.40;;
51943;SDS011;37969;53.132;6.370;2022-09-16T01:51:13;12.50;;;1.52;;
51943;SDS011;37969;53.132;6.370;2022-09-16T01:53:50;6.30;;;1.20;;
51943;SDS011;37969;53.132;6.370;2022-09-16T01:56:19;8.52;;;1.58;;
51943;SDS011;37969;53.132;6.370;2022-09-16T02:01:21;8.40;;;1.13;;
51943;SDS011;37969;53.132;6.370;2022-09-16T02:03:55;7.22;;;1.75;;
51943;SDS011;37969;53.132;6.370;2022-09-16T02:06:23;7.93;;;1.00;;
51943;SDS011;37969;53.132;6.370;2022-09-16T02:08:54;5.70;;;1.40;;
51943;SDS011;37969;53.132;6.370;2022-09-16T02:11:22;11.13;;;2.00;;
51943;SDS011;37969;53.132;6.370;2022-09-16T02:13:53;4.68;;;1.20;;
51943;SDS011;37969;53.132;6.370;2022-09-16T02:16:22;9.60;;;1.50;;
51943;SDS011;37969;53.132;6.370;2022-09-16T02:18:51;10.32;;;1.33;;
51943;SDS011;37969;53.132;6.370;2022-09-16T02:21:18;12.90;;;1.95;;
51943;SDS011;37969;53.132;6.370;2022-09-16T02:23:47;12.30;;;1.60;;
51943;SDS011;37969;53.132;6.370;2022-09-16T02:26:17;11.38;;;1.75;;
51943;SDS011;37969;53.132;6.370;2022-09-16T02:28:45;11.50;;;1.77;;
51943;SDS011;37969;53.132;6.370;2022-09-16T02:31:12;5.15;;;1.20;;
51943;SDS011;37969;53.132;6.370;2022-09-16T02:33:40;11.25;;;1.40;;
51943;SDS011;37969;53.132;6.370;2022-09-16T02:36:10;11.38;;;1.58;;
51943;SDS011;37969;53.132;6.370;2022-09-16T02:38:40;11.30;;;1.50;;
51943;SDS011;37969;53.132;6.370;2022-09-16T02:41:07;7.13;;;1.27;;
51943;SDS011;37969;53.132;6.370;2022-09-16T02:43:39;7.40;;;1.40;;
51943;SDS011;37969;53.132;6.370;2022-09-16T02:46:08;8.25;;;1.05;;
51943;SDS011;37969;53.132;6.370;2022-09-16T02:48:45;15.35;;;2.15;;
51943;SDS011;37969;53.132;6.370;2022-09-16T02:51:22;7.95;;;1.08;;
51943;SDS011;37969;53.132;6.370;2022-09-16T02:53:54;11.93;;;1.60;;
51943;SDS011;37969;53.132;6.370;2022-09-16T02:56:23;11.25;;;2.38;;
51943;SDS011;37969;53.132;6.370;2022-09-16T02:58:51;9.52;;;1.40;;
51943;SDS011;37969;53.132;6.370;2022-09-16T03:01:17;13.82;;;2.05;;
51943;SDS011;37969;53.132;6.370;2022-09-16T03:03:44;12.23;;;1.73;;
51943;SDS011;37969;53.132;6.370;2022-09-16T03:06:18;13.23;;;2.22;;
51943;SDS011;37969;53.132;6.370;2022-09-16T03:08:44;14.07;;;1.58;;
51943;SDS011;37969;53.132;6.370;2022-09-16T03:11:17;7.63;;;1.60;;
51943;SDS011;37969;53.132;6.370;2022-09-16T03:16:17;10.18;;;1.45;;
51943;SDS011;37969;53.132;6.370;2022-09-16T03:21:15;9.20;;;1.80;;
51943;SDS011;37969;53.132;6.370;2022-09-16T03:23:48;13.82;;;1.77;;
51943;SDS011;37969;53.132;6.370;2022-09-16T03:26:19;8.98;;;1.58;;
51943;SDS011;37969;53.132;6.370;2022-09-16T03:28:58;13.05;;;1.52;;
51943;SDS011;37969;53.132;6.370;2022-09-16T03:31:29;8.43;;;1.60;;
51943;SDS011;37969;53.132;6.370;2022-09-16T03:36:24;12.98;;;2.38;;
51943;SDS011;37969;53.132;6.370;2022-09-16T03:38:51;14.93;;;1.70;;
51943;SDS011;37969;53.132;6.370;2022-09-16T03:41:18;10.93;;;2.13;;
51943;SDS011;37969;53.132;6.370;2022-09-16T03:43:53;14.45;;;2.40;;
51943;SDS011;37969;53.132;6.370;2022-09-16T03:46:19;17.98;;;2.45;;
51943;SDS011;37969;53.132;6.370;2022-09-16T03:48:46;7.22;;;1.58;;
51943;SDS011;37969;53.132;6.370;2022-09-16T03:51:12;8.45;;;1.52;;
51943;SDS011;37969;53.132;6.370;2022-09-16T03:53:38;13.45;;;2.22;;
51943;SDS011;37969;53.132;6.370;2022-09-16T03:56:04;11.63;;;1.55;;
51943;SDS011;37969;53.132;6.370;2022-09-16T03:58:30;12.90;;;1.73;;
51943;SDS011;37969;53.132;6.370;2022-09-16T04:00:56;10.10;;;2.00;;
51943;SDS011;37969;53.132;6.370;2022-09-16T04:03:23;13.02;;;1.80;;
51943;SDS011;37969;53.132;6.370;2022-09-16T04:05:52;15.13;;;2.35;;
51943;SDS011;37969;53.132;6.370;2022-09-16T04:08:18;19.25;;;2.13;;
51943;SDS011;37969;53.132;6.370;2022-09-16T04:10:53;21.13;;;1.85;;
51943;SDS011;37969;53.132;6.370;2022-09-16T04:13:19;15.77;;;2.17;;
51943;SDS011;37969;53.132;6.370;2022-09-16T04:15:45;15.13;;;1.92;;
51943;SDS011;37969;53.132;6.370;2022-09-16T04:18:11;14.35;;;1.88;;
51943;SDS011;37969;53.132;6.370;2022-09-16T04:20:37;17.35;;;2.10;;
51943;SDS011;37969;53.132;6.370;2022-09-16T04:23:04;13.32;;;2.28;;
51943;SDS011;37969;53.132;6.370;2022-09-16T04:25:30;18.33;;;2.55;;
51943;SDS011;37969;53.132;6.370;2022-09-16T04:27:56;26.40;;;2.63;;
51943;SDS011;37969;53.132;6.370;2022-09-16T04:30:22;15.98;;;1.92;;
51943;SDS011;37969;53.132;6.370;2022-09-16T04:35:34;13.98;;;2.22;;
51943;SDS011;37969;53.132;6.370;2022-09-16T04:38:00;19.10;;;2.55;;
51943;SDS011;37969;53.132;6.370;2022-09-16T04:40:26;13.32;;;1.77;;
51943;SDS011;37969;53.132;6.370;2022-09-16T04:42:52;11.32;;;2.00;;
51943;SDS011;37969;53.132;6.370;2022-09-16T04:45:18;12.70;;;2.28;;
51943;SDS011;37969;53.132;6.370;2022-09-16T04:47:44;11.95;;;2.30;;
51943;SDS011;37969;53.132;6.370;2022-09-16T04:50:11;12.38;;;2.38;;
51943;SDS011;37969;53.132;6.370;2022-09-16T04:52:37;11.73;;;2.00;;
51943;SDS011;37969;53.132;6.370;2022-09-16T04:55:03;19.80;;;2.30;;
51943;SDS011;37969;53.132;6.370;2022-09-16T04:57:30;16.40;;;1.77;;
51943;SDS011;37969;53.132;6.370;2022-09-16T04:59:56;17.33;;;2.50;;
51943;SDS011;37969;53.132;6.370;2022-09-16T05:02:23;12.48;;;2.45;;
51943;SDS011;37969;53.132;6.370;2022-09-16T05:04:49;20.33;;;2.55;;
51943;SDS011;37969;53.132;6.370;2022-09-16T05:07:15;18.17;;;2.40;;
51943;SDS011;37969;53.132;6.370;2022-09-16T05:09:41;18.50;;;2.20;;
51943;SDS011;37969;53.132;6.370;2022-09-16T05:12:07;16.85;;;1.98;;
51943;SDS011;37969;53.132;6.370;2022-09-16T05:14:33;17.77;;;2.00;;
51943;SDS011;37969;53.132;6.370;2022-09-16T05:16:59;15.30;;;2.17;;
51943;SDS011;37969;53.132;6.370;2022-09-16T05:19:26;12.32;;;2.13;;
51943;SDS011;37969;53.132;6.370;2022-09-16T05:21:52;20.48;;;2.53;;
51943;SDS011;37969;53.132;6.370;2022-09-16T05:24:18;17.30;;;2.50;;
51943;SDS011;37969;53.132;6.370;2022-09-16T05:26:44;18.00;;;2.33;;
51943;SDS011;37969;53.132;6.370;2022-09-16T05:29:11;16.38;;;2.45;;
51943;SDS011;37969;53.132;6.370;2022-09-16T05:31:39;14.25;;;2.35;;
51943;SDS011;37969;53.132;6.370;2022-09-16T05:34:11;13.85;;;2.25;;
51943;SDS011;37969;53.132;6.370;2022-09-16T05:36:37;14.85;;;2.20;;
51943;SDS011;37969;53.132;6.370;2022-09-16T05:39:05;23.48;;;3.28;;
51943;SDS011;37969;53.132;6.370;2022-09-16T05:41:32;13.05;;;2.15;;
51943;SDS011;37969;53.132;6.370;2022-09-16T05:43:58;14.60;;;1.92;;
51943;SDS011;37969;53.132;6.370;2022-09-16T05:46:25;19.27;;;2.17;;
51943;SDS011;37969;53.132;6.370;2022-09-16T05:48:51;16.23;;;2.38;;
51943;SDS011;37969;53.132;6.370;2022-09-16T05:51:18;12.43;;;2.10;;
51943;SDS011;37969;53.132;6.370;2022-09-16T05:53:45;11.18;;;2.65;;
51943;SDS011;37969;53.132;6.370;2022-09-16T05:56:12;11.02;;;1.80;;
51943;SDS011;37969;53.132;6.370;2022-09-16T05:58:39;11.05;;;2.05;;
51943;SDS011;37969;53.132;6.370;2022-09-16T06:01:06;13.98;;;2.13;;
51943;SDS011;37969;53.132;6.370;2022-09-16T06:03:34;13.63;;;1.73;;
51943;SDS011;37969;53.132;6.370;2022-09-16T06:06:01;12.18;;;1.88;;
51943;SDS011;37969;53.132;6.370;2022-09-16T06:08:27;16.67;;;2.03;;
51943;SDS011;37969;53.132;6.370;2022-09-16T06:10:53;15.52;;;2.40;;
51943;SDS011;37969;53.132;6.370;2022-09-16T06:13:20;15.30;;;2.28;;
51943;SDS011;37969;53.132;6.370;2022-09-16T06:15:48;12.73;;;2.53;;
51943;SDS011;37969;53.132;6.370;2022-09-16T06:18:15;12.50;;;1.70;;
51943;SDS011;37969;53.132;6.370;2022-09-16T06:20:41;8.68;;;1.60;;
51943;SDS011;37969;53.132;6.370;2022-09-16T06:23:07;21.35;;;2.70;;
51943;SDS011;37969;53.132;6.370;2022-09-16T06:25:33;13.93;;;1.88;;
51943;SDS011;37969;53.132;6.370;2022-09-16T06:28:00;10.93;;;2.10;;
51943;SDS011;37969;53.132;6.370;2022-09-16T06:30:26;9.43;;;1.77;;
51943;SDS011;37969;53.132;6.370;2022-09-16T06:32:52;14.02;;;2.00;;
51943;SDS011;37969;53.132;6.370;2022-09-16T06:35:18;13.57;;;2.47;;
51943;SDS011;37969;53.132;6.370;2022-09-16T06:37:44;14.52;;;2.60;;
51943;SDS011;37969;53.132;6.370;2022-09-16T06:40:10;14.98;;;2.38;;
51943;SDS011;37969;53.132;6.370;2022-09-16T06:42:37;15.63;;;2.30;;
51943;SDS011;37969;53.132;6.370;2022-09-16T06:45:04;12.93;;;2.33;;
51943;SDS011;37969;53.132;6.370;2022-09-16T06:47:30;12.80;;;2.00;;
51943;SDS011;37969;53.132;6.370;2022-09-16T06:49:58;10.48;;;2.03;;
51943;SDS011;37969;53.132;6.370;2022-09-16T06:52:24;11.95;;;2.55;;
51943;SDS011;37969;53.132;6.370;2022-09-16T06:54:50;14.18;;;2.45;;
51943;SDS011;37969;53.132;6.370;2022-09-16T06:57:17;15.73;;;2.80;;
51943;SDS011;37969;53.132;6.370;2022-09-16T06:59:44;16.48;;;2.55;;
51943;SDS011;37969;53.132;6.370;2022-09-16T07:02:11;11.65;;;2.30;;
51943;SDS011;37969;53.132;6.370;2022-09-16T07:04:37;17.48;;;2.15;;
51943;SDS011;37969;53.132;6.370;2022-09-16T07:07:03;17.55;;;2.10;;
51943;SDS011;37969;53.132;6.370;2022-09-16T07:09:29;17.73;;;2.55;;
51943;SDS011;37969;53.132;6.370;2022-09-16T07:11:56;17.67;;;2.50;;
51943;SDS011;37969;53.132;6.370;2022-09-16T07:14:23;16.67;;;1.98;;
51943;SDS011;37969;53.132;6.370;2022-09-16T07:16:49;10.48;;;2.00;;
51943;SDS011;37969;53.132;6.370;2022-09-16T07:19:16;13.18;;;2.47;;
51943;SDS011;37969;53.132;6.370;2022-09-16T07:21:42;17.45;;;2.35;;
51943;SDS011;37969;53.132;6.370;2022-09-16T07:24:10;14.55;;;2.25;;
51943;SDS011;37969;53.132;6.370;2022-09-16T07:26:36;14.60;;;2.35;;
51943;SDS011;37969;53.132;6.370;2022-09-16T07:29:04;13.27;;;2.25;;
51943;SDS011;37969;53.132;6.370;2022-09-16T07:31:31;14.98;;;2.80;;
51943;SDS011;37969;53.132;6.370;2022-09-16T07:33:58;15.23;;;2.50;;
51943;SDS011;37969;53.132;6.370;2022-09-16T07:36:27;17.08;;;2.60;;
51943;SDS011;37969;53.132;6.370;2022-09-16T07:38:54;14.80;;;2.38;;
51943;SDS011;37969;53.132;6.370;2022-09-16T07:41:24;14.50;;;2.77;;
51943;SDS011;37969;53.132;6.370;2022-09-16T07:43:51;17.02;;;2.03;;
51943;SDS011;37969;53.132;6.370;2022-09-16T07:46:18;19.90;;;2.53;;
51943;SDS011;37969;53.132;6.370;2022-09-16T07:48:45;16.63;;;2.45;;
51943;SDS011;37969;53.132;6.370;2022-09-16T07:51:12;15.70;;;2.92;;
51943;SDS011;37969;53.132;6.370;2022-09-16T07:53:39;16.70;;;2.30;;
51943;SDS011;37969;53.132;6.370;2022-09-16T07:56:07;21.05;;;2.38;;
51943;SDS011;37969;53.132;6.370;2022-09-16T07:58:33;23.98;;;3.45;;
51943;SDS011;37969;53.132;6.370;2022-09-16T08:01:00;20.13;;;2.95;;
51943;SDS011;37969;53.132;6.370;2022-09-16T08:03:27;20.63;;;2.97;;
51943;SDS011;37969;53.132;6.370;2022-09-16T08:05:57;23.90;;;3.20;;
51943;SDS011;37969;53.132;6.370;2022-09-16T08:08:24;21.48;;;2.88;;
51943;SDS011;37969;53.132;6.370;2022-09-16T08:10:52;19.15;;;3.25;;
51943;SDS011;37969;53.132;6.370;2022-09-16T08:13:19;21.05;;;3.95;;
51943;SDS011;37969;53.132;6.370;2022-09-16T08:15:45;18.55;;;3.58;;
51943;SDS011;37969;53.132;6.370;2022-09-16T08:18:11;21.40;;;3.65;;
51943;SDS011;37969;53.132;6.370;2022-09-16T08:20:37;17.38;;;3.10;;
51943;SDS011;37969;53.132;6.370;2022-09-16T08:23:04;23.20;;;3.33;;
51943;SDS011;37969;53.132;6.370;2022-09-16T08:25:30;20.92;;;3.40;;
51943;SDS011;37969;53.132;6.370;2022-09-16T08:27:56;19.45;;;3.30;;
51943;SDS011;37969;53.132;6.370;2022-09-16T08:30:23;17.95;;;3.05;;
51943;SDS011;37969;53.132;6.370;2022-09-16T08:32:55;21.80;;;4.20;;
51943;SDS011;37969;53.132;6.370;2022-09-16T08:35:22;19.00;;;2.95;;
51943;SDS011;37969;53.132;6.370;2022-09-16T08:37:48;14.98;;;2.58;;
51943;SDS011;37969;53.132;6.370;2022-09-16T08:40:14;16.92;;;3.13;;
51943;SDS011;37969;53.132;6.370;2022-09-16T08:45:15;14.45;;;2.65;;
51943;SDS011;37969;53.132;6.370;2022-09-16T08:50:21;11.77;;;2.92;;
51943;SDS011;37969;53.132;6.370;2022-09-16T08:55:17;14.10;;;2.58;;
51943;SDS011;37969;53.132;6.370;2022-09-16T08:57:51;17.33;;;2.30;;
51943;SDS011;37969;53.132;6.370;2022-09-16T09:00:19;18.13;;;2.83;;
51943;SDS011;37969;53.132;6.370;2022-09-16T09:02:47;15.93;;;2.40;;
51943;SDS011;37969;53.132;6.370;2022-09-16T09:05:17;18.38;;;2.60;;
51943;SDS011;37969;53.132;6.370;2022-09-16T09:07:48;19.10;;;2.58;;
51943;SDS011;37969;53.132;6.370;2022-09-16T09:10:19;12.13;;;2.42;;
51943;SDS011;37969;53.132;6.370;2022-09-16T09:12:51;14.32;;;2.15;;
51943;SDS011;37969;53.132;6.370;2022-09-16T09:17:59;17.85;;;3.00;;
51943;SDS011;37969;53.132;6.370;2022-09-16T09:20:42;16.73;;;2.40;;
51943;SDS011;37969;53.132;6.370;2022-09-16T09:31:04;14.20;;;1.88;;
51943;SDS011;37969;53.132;6.370;2022-09-16T09:33:38;17.10;;;2.58;;
51943;SDS011;37969;53.132;6.370;2022-09-16T09:41:07;17.88;;;2.55;;
51943;SDS011;37969;53.132;6.370;2022-09-16T09:43:35;17.15;;;2.22;;
51943;SDS011;37969;53.132;6.370;2022-09-16T09:48:40;16.98;;;2.33;;
51943;SDS011;37969;53.132;6.370;2022-09-16T09:51:12;16.25;;;2.63;;
51943;SDS011;37969;53.132;6.370;2022-09-16T09:53:43;13.50;;;2.40;;
51943;SDS011;37969;53.132;6.370;2022-09-16T09:56:23;10.07;;;2.22;;
51943;SDS011;37969;53.132;6.370;2022-09-16T10:01:19;12.23;;;2.58;;
51943;SDS011;37969;53.132;6.370;2022-09-16T10:03:46;13.75;;;1.90;;
51943;SDS011;37969;53.132;6.370;2022-09-16T10:06:13;15.93;;;2.50;;
51943;SDS011;37969;53.132;6.370;2022-09-16T10:08:42;15.23;;;2.08;;
51943;SDS011;37969;53.132;6.370;2022-09-16T10:11:15;14.55;;;2.33;;
51943;SDS011;37969;53.132;6.370;2022-09-16T10:13:49;14.57;;;2.22;;
51943;SDS011;37969;53.132;6.370;2022-09-16T10:16:17;16.77;;;2.97;;
51943;SDS011;37969;53.132;6.370;2022-09-16T10:18:44;12.02;;;2.15;;
51943;SDS011;37969;53.132;6.370;2022-09-16T10:21:17;11.15;;;1.90;;
51943;SDS011;37969;53.132;6.370;2022-09-16T10:23:54;9.57;;;1.50;;
51943;SDS011;37969;53.132;6.370;2022-09-16T10:26:23;17.35;;;2.38;;
51943;SDS011;37969;53.132;6.370;2022-09-16T10:29:02;11.23;;;1.88;;
51943;SDS011;37969;53.132;6.370;2022-09-16T10:31:30;13.77;;;2.08;;
51943;SDS011;37969;53.132;6.370;2022-09-16T10:33:57;7.18;;;1.80;;
51943;SDS011;37969;53.132;6.370;2022-09-16T10:36:24;13.18;;;1.92;;
51943;SDS011;37969;53.132;6.370;2022-09-16T10:38:54;8.45;;;1.80;;
51943;SDS011;37969;53.132;6.370;2022-09-16T10:41:22;12.88;;;2.42;;
51943;SDS011;37969;53.132;6.370;2022-09-16T10:43:50;12.65;;;1.60;;
51943;SDS011;37969;53.132;6.370;2022-09-16T10:46:17;22.73;;;2.85;;
51943;SDS011;37969;53.132;6.370;2022-09-16T10:48:44;10.60;;;2.55;;
51943;SDS011;37969;53.132;6.370;2022-09-16T10:51:24;18.50;;;2.38;;
51943;SDS011;37969;53.132;6.370;2022-09-16T10:53:52;11.27;;;2.20;;
51943;SDS011;37969;53.132;6.370;2022-09-16T10:56:21;15.65;;;2.08;;
51943;SDS011;37969;53.132;6.370;2022-09-16T10:58:48;7.57;;;1.73;;
51943;SDS011;37969;53.132;6.370;2022-09-16T11:01:23;9.00;;;1.65;;
51943;SDS011;37969;53.132;6.370;2022-09-16T11:08:51;11.32;;;2.55;;
51943;SDS011;37969;53.132;6.370;2022-09-16T11:16:44;14.60;;;2.28;;
51943;SDS011;37969;53.132;6.370;2022-09-16T11:19:18;10.90;;;2.38;;
51943;SDS011;37969;53.132;6.370;2022-09-16T11:22:10;14.57;;;2.22;;
51943;SDS011;37969;53.132;6.370;2022-09-16T11:24:42;8.02;;;1.90;;
51943;SDS011;37969;53.132;6.370;2022-09-16T11:29:41;16.95;;;2.22;;
51943;SDS011;37969;53.132;6.370;2022-09-16T11:32:13;12.35;;;2.25;;
51943;SDS011;37969;53.132;6.370;2022-09-16T11:35:00;13.20;;;2.20;;
51943;SDS011;37969;53.132;6.370;2022-09-16T11:37:35;17.00;;;2.40;;
51943;SDS011;37969;53.132;6.370;2022-09-16T11:42:37;11.00;;;2.00;;
51943;SDS011;37969;53.132;6.370;2022-09-16T11:45:09;14.77;;;2.20;;
51943;SDS011;37969;53.132;6.370;2022-09-16T11:50:26;13.73;;;2.47;;
51943;SDS011;37969;53.132;6.370;2022-09-16T11:52:59;14.88;;;2.30;;
51943;SDS011;37969;53.132;6.370;2022-09-16T11:55:29;13.82;;;2.38;;
51943;SDS011;37969;53.132;6.370;2022-09-16T11:58:02;8.60;;;2.20;;
51943;SDS011;37969;53.132;6.370;2022-09-16T12:00:30;15.85;;;2.80;;
51943;SDS011;37969;53.132;6.370;2022-09-16T12:03:04;13.13;;;1.95;;
51943;SDS011;37969;53.132;6.370;2022-09-16T12:05:41;16.58;;;2.25;;
51943;SDS011;37969;53.132;6.370;2022-09-16T12:08:20;14.70;;;2.40;;
51943;SDS011;37969;53.132;6.370;2022-09-16T12:10:52;13.70;;;2.90;;
51943;SDS011;37969;53.132;6.370;2022-09-16T12:13:20;18.15;;;2.90;;
51943;SDS011;37969;53.132;6.370;2022-09-16T12:15:49;14.48;;;2.65;;
51943;SDS011;37969;53.132;6.370;2022-09-16T12:18:18;15.20;;;2.47;;
51943;SDS011;37969;53.132;6.370;2022-09-16T12:20:45;15.60;;;2.75;;
51943;SDS011;37969;53.132;6.370;2022-09-16T12:23:16;20.00;;;2.85;;
51943;SDS011;37969;53.132;6.370;2022-09-16T12:28:12;18.27;;;2.80;;
51943;SDS011;37969;53.132;6.370;2022-09-16T12:30:41;18.88;;;3.45;;
51943;SDS011;37969;53.132;6.370;2022-09-16T12:33:16;16.88;;;3.22;;
51943;SDS011;37969;53.132;6.370;2022-09-16T12:36:06;16.92;;;3.42;;
51943;SDS011;37969;53.132;6.370;2022-09-16T12:38:31;22.40;;;3.50;;
51943;SDS011;37969;53.132;6.370;2022-09-16T12:41:04;15.60;;;2.72;;
51943;SDS011;37969;53.132;6.370;2022-09-16T12:46:05;22.30;;;3.25;;
51943;SDS011;37969;53.132;6.370;2022-09-16T12:48:39;20.63;;;3.60;;
51943;SDS011;37969;53.132;6.370;2022-09-16T12:51:11;20.02;;;3.55;;
51943;SDS011;37969;53.132;6.370;2022-09-16T12:56:19;13.52;;;2.78;;
51943;SDS011;37969;53.132;6.370;2022-09-16T12:58:53;16.63;;;2.65;;
51943;SDS011;37969;53.132;6.370;2022-09-16T13:01:25;15.02;;;2.25;;
51943;SDS011;37969;53.132;6.370;2022-09-16T13:03:55;16.75;;;3.33;;
51943;SDS011;37969;53.132;6.370;2022-09-16T13:06:24;14.30;;;2.67;;
51943;SDS011;37969;53.132;6.370;2022-09-16T13:08:51;9.48;;;1.50;;
51943;SDS011;37969;53.132;6.370;2022-09-16T13:11:19;5.10;;;1.70;;
51943;SDS011;37969;53.132;6.370;2022-09-16T13:13:47;7.50;;;1.45;;
51943;SDS011;37969;53.132;6.370;2022-09-16T13:16:25;8.93;;;1.38;;
51943;SDS011;37969;53.132;6.370;2022-09-16T13:19:01;6.53;;;1.48;;
51943;SDS011;37969;53.132;6.370;2022-09-16T13:21:34;6.95;;;1.08;;
51943;SDS011;37969;53.132;6.370;2022-09-16T13:24:05;9.00;;;1.17;;
51943;SDS011;37969;53.132;6.370;2022-09-16T13:26:39;6.72;;;1.80;;
51943;SDS011;37969;53.132;6.370;2022-09-16T13:31:50;17.40;;;2.58;;
51943;SDS011;37969;53.132;6.370;2022-09-16T13:34:16;13.82;;;2.20;;
51943;SDS011;37969;53.132;6.370;2022-09-16T13:36:43;9.82;;;1.85;;
51943;SDS011;37969;53.132;6.370;2022-09-16T13:39:11;12.68;;;2.25;;
51943;SDS011;37969;53.132;6.370;2022-09-16T13:46:49;15.63;;;2.05;;
51943;SDS011;37969;53.132;6.370;2022-09-16T13:49:17;13.80;;;2.60;;
51943;SDS011;37969;53.132;6.370;2022-09-16T13:51:46;18.05;;;2.85;;
51943;SDS011;37969;53.132;6.370;2022-09-16T13:54:18;14.75;;;2.22;;
51943;SDS011;37969;53.132;6.370;2022-09-16T14:07:16;12.73;;;2.47;;
51943;SDS011;37969;53.132;6.370;2022-09-16T14:12:14;17.05;;;2.78;;
51943;SDS011;37969;53.132;6.370;2022-09-16T14:14:41;12.77;;;2.83;;
51943;SDS011;37969;53.132;6.370;2022-09-16T14:17:13;17.60;;;2.78;;
51943;SDS011;37969;53.132;6.370;2022-09-16T14:19:40;18.50;;;2.65;;
51943;SDS011;37969;53.132;6.370;2022-09-16T14:22:15;20.20;;;3.30;;
51943;SDS011;37969;53.132;6.370;2022-09-16T14:24:42;17.27;;;3.35;;
51943;SDS011;37969;53.132;6.370;2022-09-16T14:27:19;19.80;;;3.25;;
51943;SDS011;37969;53.132;6.370;2022-09-16T14:29:53;20.23;;;3.20;;
51943;SDS011;37969;53.132;6.370;2022-09-16T14:32:20;17.95;;;2.83;;
51943;SDS011;37969;53.132;6.370;2022-09-16T14:34:48;17.15;;;2.25;;
51943;SDS011;37969;53.132;6.370;2022-09-16T14:37:16;8.68;;;2.40;;
51943;SDS011;37969;53.132;6.370;2022-09-16T14:39:43;15.13;;;2.58;;
51943;SDS011;37969;53.132;6.370;2022-09-16T14:42:13;10.15;;;1.85;;
51943;SDS011;37969;53.132;6.370;2022-09-16T14:44:41;8.77;;;1.40;;
51943;SDS011;37969;53.132;6.370;2022-09-16T14:47:18;8.90;;;1.98;;
51943;SDS011;37969;53.132;6.370;2022-09-16T14:49:47;9.70;;;1.63;;
51943;SDS011;37969;53.132;6.370;2022-09-16T14:52:19;6.82;;;1.45;;
51943;SDS011;37969;53.132;6.370;2022-09-16T14:54:46;13.20;;;1.80;;
51943;SDS011;37969;53.132;6.370;2022-09-16T14:57:13;9.73;;;1.90;;
51943;SDS011;37969;53.132;6.370;2022-09-16T14:59:40;9.85;;;2.13;;
51943;SDS011;37969;53.132;6.370;2022-09-16T15:02:12;9.00;;;1.88;;
51943;SDS011;37969;53.132;6.370;2022-09-16T15:04:39;12.98;;;2.03;;
51943;SDS011;37969;53.132;6.370;2022-09-16T15:07:09;14.20;;;2.03;;
51943;SDS011;37969;53.132;6.370;2022-09-16T15:12:03;11.43;;;2.20;;
51943;SDS011;37969;53.132;6.370;2022-09-16T15:14:30;11.73;;;2.13;;
51943;SDS011;37969;53.132;6.370;2022-09-16T15:16:57;11.98;;;2.13;;
51943;SDS011;37969;53.132;6.370;2022-09-16T15:19:26;14.20;;;2.35;;
51943;SDS011;37969;53.132;6.370;2022-09-16T15:21:53;10.55;;;1.65;;
51943;SDS011;37969;53.132;6.370;2022-09-16T15:24:21;16.13;;;2.63;;
51943;SDS011;37969;53.132;6.370;2022-09-16T15:26:49;6.03;;;1.40;;
51943;SDS011;37969;53.132;6.370;2022-09-16T15:31:42;10.95;;;1.70;;
51943;SDS011;37969;53.132;6.370;2022-09-16T15:36:47;11.98;;;1.95;;
51943;SDS011;37969;53.132;6.370;2022-09-16T15:39:20;11.32;;;2.03;;
51943;SDS011;37969;53.132;6.370;2022-09-16T15:41:47;11.50;;;1.80;;
51943;SDS011;37969;53.132;6.370;2022-09-16T15:44:17;12.93;;;1.63;;
51943;SDS011;37969;53.132;6.370;2022-09-16T15:46:45;14.32;;;2.35;;
51943;SDS011;37969;53.132;6.370;2022-09-16T15:49:11;12.27;;;2.00;;
51943;SDS011;37969;53.132;6.370;2022-09-16T15:51:44;10.93;;;1.80;;
51943;SDS011;37969;53.132;6.370;2022-09-16T15:56:39;11.68;;;1.85;;
51943;SDS011;37969;53.132;6.370;2022-09-16T15:59:19;14.15;;;1.98;;
51943;SDS011;37969;53.132;6.370;2022-09-16T16:01:46;11.60;;;1.77;;
51943;SDS011;37969;53.132;6.370;2022-09-16T16:04:20;13.10;;;1.92;;
51943;SDS011;37969;53.132;6.370;2022-09-16T16:06:59;7.82;;;1.85;;
51943;SDS011;37969;53.132;6.370;2022-09-16T16:11:52;11.23;;;1.90;;
51943;SDS011;37969;53.132;6.370;2022-09-16T16:14:20;15.73;;;2.58;;
51943;SDS011;37969;53.132;6.370;2022-09-16T16:16:48;17.50;;;2.80;;
51943;SDS011;37969;53.132;6.370;2022-09-16T16:19:14;13.88;;;2.03;;
51943;SDS011;37969;53.132;6.370;2022-09-16T16:21:40;23.60;;;3.08;;
51943;SDS011;37969;53.132;6.370;2022-09-16T16:24:10;21.58;;;2.90;;
51943;SDS011;37969;53.132;6.370;2022-09-16T16:26:36;33.53;;;3.35;;
51943;SDS011;37969;53.132;6.370;2022-09-16T16:29:02;16.88;;;1.98;;
51943;SDS011;37969;53.132;6.370;2022-09-16T16:31:29;22.48;;;3.30;;
51943;SDS011;37969;53.132;6.370;2022-09-16T16:33:56;15.88;;;2.03;;
51943;SDS011;37969;53.132;6.370;2022-09-16T16:36:23;17.65;;;2.40;;
51943;SDS011;37969;53.132;6.370;2022-09-16T16:38:49;24.10;;;3.47;;